createdAt,value
2023-03-04T00:01:06.740Z,23.70
2023-03-04T00:03:36.910Z,21.40
2023-03-04T00:06:04.580Z,17.40
2023-03-04T00:08:36.297Z,20.00
2023-03-04T00:11:03.336Z,20.50
2023-03-04T00:13:31.035Z,20.90
2023-03-04T00:15:58.064Z,17.70
2023-03-04T00:18:25.793Z,20.90
2023-03-04T00:20:53.008Z,21.20
2023-03-04T00:23:20.031Z,24.50
2023-03-04T00:25:50.198Z,25.00
2023-03-04T00:28:18.689Z,23.00
2023-03-04T00:30:46.393Z,25.00
2023-03-04T00:33:13.237Z,26.80
2023-03-04T00:35:40.906Z,21.60
2023-03-04T00:38:08.947Z,22.90
2023-03-04T00:40:36.709Z,22.10
2023-03-04T00:43:05.236Z,23.20
2023-03-04T00:45:33.529Z,20.30
2023-03-04T00:48:06.216Z,21.50
2023-03-04T00:50:35.574Z,21.00
2023-03-04T00:53:02.870Z,25.20
2023-03-04T00:55:31.962Z,27.60
2023-03-04T00:57:59.149Z,26.00
2023-03-04T01:00:26.296Z,26.60
2023-03-04T01:02:54.512Z,23.10
2023-03-04T01:05:22.776Z,24.20
2023-03-04T01:07:50.585Z,26.10
2023-03-04T01:10:27.890Z,24.50
2023-03-04T01:12:55.089Z,29.00
2023-03-04T01:15:24.141Z,30.60
2023-03-04T01:17:54.483Z,26.30
2023-03-04T01:20:21.793Z,23.00
2023-03-04T01:22:48.720Z,21.00
2023-03-04T01:25:15.652Z,20.50
2023-03-04T01:27:43.559Z,24.10
2023-03-04T01:30:14.302Z,25.90
2023-03-04T01:32:42.870Z,27.50
2023-03-04T01:35:09.708Z,26.70
2023-03-04T01:37:36.547Z,26.60
2023-03-04T01:40:05.499Z,26.50
2023-03-04T01:42:33.780Z,28.70
2023-03-04T01:45:01.132Z,23.90
2023-03-04T01:47:29.557Z,23.50
2023-03-04T01:49:56.772Z,23.30
2023-03-04T01:52:25.374Z,20.80
2023-03-04T01:54:53.892Z,19.80
2023-03-04T01:57:22.569Z,22.20
2023-03-04T02:00:21.740Z,26.80
2023-03-04T02:02:50.650Z,37.70
2023-03-04T02:05:18.020Z,36.50
2023-03-04T02:07:44.797Z,32.60
2023-03-04T02:10:11.638Z,38.70
2023-03-04T02:12:41.244Z,29.80
2023-03-04T02:15:08.543Z,26.80
2023-03-04T02:17:41.746Z,30.00
2023-03-04T02:20:17.968Z,26.80
2023-03-04T02:22:52.214Z,33.90
2023-03-04T02:25:22.674Z,31.00
2023-03-04T02:27:49.643Z,31.20
2023-03-04T02:30:20.404Z,30.90
2023-03-04T02:32:47.611Z,28.10
2023-03-04T02:35:17.985Z,25.50
2023-03-04T02:37:45.385Z,29.00
2023-03-04T02:40:21.720Z,31.40
2023-03-04T02:42:48.712Z,32.60
2023-03-04T02:45:47.040Z,39.20
2023-03-04T02:48:20.176Z,31.80
2023-03-04T02:50:51.663Z,35.80
2023-03-04T02:53:20.285Z,33.50
2023-03-04T02:55:48.205Z,54.00
2023-03-04T02:58:18.180Z,31.90
2023-03-04T03:00:45.352Z,26.70
2023-03-04T03:03:12.545Z,26.30
2023-03-04T03:05:39.909Z,27.70
2023-03-04T03:08:07.460Z,24.80
2023-03-04T03:10:35.550Z,31.20
2023-03-04T03:13:03.443Z,25.80
2023-03-04T03:15:33.156Z,26.90
2023-03-04T03:18:00.742Z,26.00
2023-03-04T03:20:27.510Z,26.90
2023-03-04T03:22:54.545Z,23.60
2023-03-04T03:25:21.659Z,24.40
2023-03-04T03:27:50.734Z,25.50
2023-03-04T03:30:17.860Z,26.20
2023-03-04T03:32:44.810Z,28.50
2023-03-04T03:35:11.552Z,25.00
2023-03-04T03:37:39.061Z,24.70
2023-03-04T03:40:06.427Z,29.30
2023-03-04T03:42:35.047Z,28.70
2023-03-04T03:45:03.263Z,33.40
2023-03-04T03:47:30.767Z,35.20
2023-03-04T03:49:57.507Z,26.50
2023-03-04T03:52:25.224Z,25.60
2023-03-04T03:54:51.926Z,25.00
2023-03-04T03:57:18.742Z,28.40
2023-03-04T03:59:45.755Z,28.90
2023-03-04T04:02:22.610Z,38.60
2023-03-04T04:04:52.813Z,35.00
2023-03-04T04:08:18.623Z,29.10
2023-03-04T04:10:47.581Z,31.30
2023-03-04T04:13:16.979Z,30.10
2023-03-04T04:15:56.189Z,37.20
2023-03-04T04:18:26.412Z,34.60
2023-03-04T04:20:58.297Z,28.50
2023-03-04T04:23:27.373Z,33.70
2023-03-04T04:25:56.271Z,27.30
2023-03-04T04:28:24.902Z,36.70
2023-03-04T04:30:53.811Z,34.10
2023-03-04T04:33:22.643Z,31.00
2023-03-04T04:35:50.950Z,32.40
2023-03-04T04:38:19.286Z,38.50
2023-03-04T04:40:47.886Z,31.70
2023-03-04T04:43:16.540Z,51.10
2023-03-04T04:45:45.251Z,35.40
2023-03-04T04:48:13.917Z,38.70
2023-03-04T04:50:42.200Z,33.60
2023-03-04T04:53:14.278Z,41.30
2023-03-04T04:55:42.680Z,32.30
2023-03-04T04:58:13.206Z,31.60
2023-03-04T05:00:41.402Z,29.60
2023-03-04T05:03:18.149Z,37.80
2023-03-04T05:05:47.399Z,36.00
2023-03-04T05:08:24.350Z,30.70
2023-03-04T05:10:57.149Z,32.50
2023-03-04T05:13:26.548Z,30.30
2023-03-04T05:15:56.974Z,36.30
2023-03-04T05:18:25.908Z,33.00
2023-03-04T05:21:02.107Z,30.30
2023-03-04T05:23:33.951Z,27.80
2023-03-04T05:26:03.070Z,29.50
2023-03-04T05:28:31.629Z,29.90
2023-03-04T05:31:00.454Z,29.70
2023-03-04T05:33:28.966Z,28.50
2023-03-04T05:35:57.307Z,34.40
2023-03-04T05:38:26.213Z,28.10
2023-03-04T05:40:59.388Z,23.50
2023-03-04T05:43:28.360Z,27.40
2023-03-04T05:45:59.292Z,29.40
2023-03-04T05:48:29.197Z,29.70
2023-03-04T05:50:58.159Z,28.90
2023-03-04T05:53:26.594Z,22.10
2023-03-04T05:55:55.401Z,26.70
2023-03-04T05:58:24.127Z,28.50
2023-03-04T06:00:52.434Z,29.70
2023-03-04T06:03:22.554Z,26.90
2023-03-04T06:05:50.887Z,26.60
2023-03-04T06:08:21.481Z,30.20
2023-03-04T06:10:52.478Z,25.80
2023-03-04T06:13:27.194Z,29.20
2023-03-04T06:15:58.562Z,29.40
2023-03-04T06:18:27.552Z,29.40
2023-03-04T06:21:01.230Z,30.60
2023-03-04T06:23:30.302Z,32.30
2023-03-04T06:25:59.619Z,28.20
2023-03-04T06:28:28.109Z,33.20
2023-03-04T06:30:56.783Z,27.40
2023-03-04T06:33:32.645Z,28.60
2023-03-04T06:36:01.477Z,27.70
2023-03-04T06:38:29.944Z,27.50
2023-03-04T06:41:06.529Z,28.10
2023-03-04T06:43:35.349Z,26.10
2023-03-04T06:46:09.848Z,30.70
2023-03-04T06:48:39.596Z,28.50
2023-03-04T06:51:09.467Z,28.90
2023-03-04T06:53:39.556Z,24.60
2023-03-04T06:56:16.316Z,23.00
2023-03-04T06:58:47.973Z,28.80
2023-03-04T07:01:21.420Z,25.20
2023-03-04T07:03:50.351Z,32.50
2023-03-04T07:06:21.213Z,27.50
2023-03-04T07:08:56.207Z,29.30
2023-03-04T07:11:25.483Z,28.40
2023-03-04T07:13:54.446Z,24.70
2023-03-04T07:16:24.121Z,28.40
2023-03-04T07:18:52.866Z,27.20
2023-03-04T07:21:27.192Z,24.90
2023-03-04T07:23:55.397Z,25.10
2023-03-04T07:26:24.207Z,25.00
2023-03-04T07:28:57.432Z,32.00
2023-03-04T07:31:30.260Z,27.50
2023-03-04T07:34:03.984Z,24.00
2023-03-04T07:36:33.822Z,26.50
2023-03-04T07:39:02.331Z,27.10
2023-03-04T07:41:31.798Z,24.40
2023-03-04T07:44:00.220Z,24.00
2023-03-04T07:46:28.611Z,19.80
2023-03-04T07:48:58.112Z,24.80
2023-03-04T07:51:33.155Z,23.10
2023-03-04T07:54:02.923Z,22.00
2023-03-04T07:56:33.631Z,21.40
2023-03-04T07:59:03.594Z,23.60
2023-03-04T08:01:37.259Z,24.30
2023-03-04T08:04:06.835Z,37.60
2023-03-04T08:06:36.489Z,23.80
2023-03-04T08:09:09.244Z,22.40
2023-03-04T08:11:38.349Z,20.90
2023-03-04T08:14:07.481Z,20.50
2023-03-04T08:16:36.048Z,18.40
2023-03-04T08:19:05.787Z,18.80
2023-03-04T08:21:34.105Z,19.40
2023-03-04T08:24:08.442Z,16.90
2023-03-04T08:26:42.279Z,18.70
2023-03-04T08:29:15.722Z,18.70
2023-03-04T08:31:48.670Z,16.10
2023-03-04T08:34:18.504Z,15.80
2023-03-04T08:36:52.769Z,16.20
2023-03-04T08:39:21.194Z,22.30
2023-03-04T08:41:49.652Z,18.00
2023-03-04T08:44:17.950Z,17.80
2023-03-04T08:46:46.823Z,20.60
2023-03-04T08:49:18.416Z,18.30
2023-03-04T08:51:46.602Z,17.30
2023-03-04T08:54:14.884Z,20.40
2023-03-04T08:56:45.219Z,21.80
2023-03-04T08:59:13.392Z,21.70
2023-03-04T09:01:41.754Z,25.30
2023-03-04T09:04:11.408Z,19.70
2023-03-04T09:06:44.578Z,19.20
2023-03-04T09:09:14.054Z,22.20
2023-03-04T09:11:42.250Z,26.70
2023-03-04T09:14:14.576Z,25.60
2023-03-04T09:16:42.967Z,23.60
2023-03-04T09:19:11.090Z,16.80
2023-03-04T09:21:40.852Z,24.80
2023-03-04T09:24:09.145Z,16.30
2023-03-04T09:26:37.586Z,16.30
2023-03-04T09:29:07.375Z,14.70
2023-03-04T09:31:36.177Z,16.50
2023-03-04T09:34:06.746Z,18.70
2023-03-04T09:36:34.929Z,15.90
2023-03-04T09:39:07.433Z,14.50
2023-03-04T09:41:47.562Z,16.80
2023-03-04T09:44:19.169Z,17.20
2023-03-04T09:46:47.464Z,14.60
2023-03-04T09:49:15.967Z,13.30
2023-03-04T09:51:59.723Z,14.00
2023-03-04T09:55:04.994Z,14.40
2023-03-04T09:59:12.896Z,17.70
2023-03-04T10:01:49.475Z,12.40
2023-03-04T10:04:30.860Z,15.40
2023-03-04T10:07:23.376Z,13.60
2023-03-04T10:10:00.406Z,12.20
2023-03-04T10:12:29.993Z,13.70
2023-03-04T10:15:06.999Z,13.60
2023-03-04T10:17:44.730Z,15.00
2023-03-04T10:20:29.645Z,16.20
2023-03-04T10:22:59.415Z,14.50
2023-03-04T10:25:29.044Z,15.40
2023-03-04T10:28:02.832Z,19.80
2023-03-04T10:30:30.227Z,19.60
2023-03-04T10:32:57.789Z,17.60
2023-03-04T10:35:27.401Z,14.20
2023-03-04T10:37:55.049Z,14.40
2023-03-04T10:40:25.187Z,12.60
2023-03-04T10:42:51.992Z,17.10
2023-03-04T10:45:30.261Z,9.70
2023-03-04T10:47:58.373Z,11.70
2023-03-04T10:50:27.423Z,15.60
2023-03-04T10:52:55.490Z,23.30
2023-03-04T10:55:28.599Z,12.70
2023-03-04T10:58:05.798Z,10.80
2023-03-04T11:00:34.179Z,13.20
2023-03-04T11:03:31.286Z,12.70
2023-03-04T11:06:18.427Z,17.00
2023-03-04T11:08:59.123Z,12.80
2023-03-04T11:11:38.363Z,11.00
2023-03-04T11:14:35.598Z,13.80
2023-03-04T11:17:26.530Z,9.20
2023-03-04T11:20:10.424Z,15.20
2023-03-04T11:22:39.479Z,16.50
2023-03-04T11:25:10.603Z,10.30
2023-03-04T11:27:51.065Z,12.60
2023-03-04T11:30:30.295Z,17.10
2023-03-04T11:33:04.236Z,19.30
2023-03-04T11:35:39.731Z,15.30
2023-03-04T11:38:23.154Z,15.60
2023-03-04T11:40:58.802Z,15.10
2023-03-04T11:43:45.149Z,13.50
2023-03-04T11:46:35.445Z,14.70
2023-03-04T11:49:38.724Z,15.70
2023-03-04T11:52:21.766Z,16.00
2023-03-04T11:55:27.461Z,16.90
2023-03-04T11:58:26.587Z,17.10
2023-03-04T12:01:23.416Z,16.90
2023-03-04T12:04:04.503Z,16.00
2023-03-04T12:06:56.075Z,16.20
2023-03-04T12:09:39.327Z,18.30
2023-03-04T12:12:44.173Z,19.10
2023-03-04T12:15:19.384Z,11.90
2023-03-04T12:18:06.850Z,17.90
2023-03-04T12:20:46.925Z,16.00
2023-03-04T12:23:13.813Z,13.80
2023-03-04T12:25:45.088Z,14.60
2023-03-04T12:28:31.395Z,14.40
2023-03-04T12:31:10.781Z,16.20
2023-03-04T12:34:07.455Z,17.00
2023-03-04T12:36:52.051Z,14.50
2023-03-04T12:39:27.361Z,21.20
2023-03-04T12:42:31.364Z,20.10
2023-03-04T12:45:19.708Z,18.90
2023-03-04T12:47:56.030Z,20.00
2023-03-04T12:50:49.752Z,25.00
2023-03-04T12:53:19.781Z,18.70
2023-03-04T12:55:47.097Z,27.90
2023-03-04T12:58:22.156Z,17.20
2023-03-04T13:00:55.384Z,20.20
2023-03-04T13:03:35.568Z,17.20
2023-03-04T13:06:22.201Z,20.80
2023-03-04T13:08:59.613Z,16.10
2023-03-04T13:11:38.947Z,18.00
2023-03-04T13:14:16.917Z,16.00
2023-03-04T13:16:54.001Z,15.60
2023-03-04T13:19:47.735Z,13.30
2023-03-04T13:22:38.822Z,26.80
2023-03-04T13:25:48.080Z,16.10
2023-03-04T13:28:20.118Z,14.70
2023-03-04T13:30:56.952Z,16.00
2023-03-04T13:33:24.137Z,23.10
2023-03-04T13:36:01.428Z,18.10
2023-03-04T13:38:30.398Z,14.90
2023-03-04T13:41:13.558Z,14.50
2023-03-04T13:43:45.204Z,17.60
2023-03-04T13:46:18.762Z,21.00
2023-03-04T13:48:49.550Z,16.20
2023-03-04T13:51:29.608Z,18.00
2023-03-04T13:54:02.247Z,23.10
2023-03-04T13:56:37.488Z,14.70
2023-03-04T13:59:06.477Z,16.30
2023-03-04T14:01:35.744Z,16.60
2023-03-04T14:04:35.661Z,19.80
2023-03-04T14:07:26.663Z,17.60
2023-03-04T14:10:13.568Z,20.70
2023-03-04T14:13:00.802Z,14.90
2023-03-04T14:15:30.575Z,20.30
2023-03-04T14:18:01.134Z,15.90
2023-03-04T14:20:35.102Z,18.70
2023-03-04T14:23:21.971Z,12.40
2023-03-04T14:25:48.845Z,15.70
2023-03-04T14:28:17.701Z,16.30
2023-03-04T14:30:54.983Z,15.30
2023-03-04T14:33:28.136Z,30.10
2023-03-04T14:36:00.438Z,23.30
2023-03-04T14:38:34.744Z,28.20
2023-03-04T14:41:24.792Z,17.30
2023-03-04T14:43:57.564Z,15.20
2023-03-04T14:46:25.594Z,19.30
2023-03-04T14:48:56.286Z,18.40
2023-03-04T14:51:50.677Z,18.70
2023-03-04T14:54:41.057Z,15.00
2023-03-04T14:57:23.254Z,21.00
2023-03-04T14:59:51.618Z,16.40
2023-03-04T15:02:20.356Z,15.30
2023-03-04T15:04:48.286Z,18.10
2023-03-04T15:07:20.067Z,31.50
2023-03-04T15:12:24.174Z,17.00
2023-03-04T15:14:54.098Z,17.70
2023-03-04T15:17:39.318Z,16.60
2023-03-04T15:20:07.526Z,17.40
2023-03-04T15:22:39.600Z,15.80
2023-03-04T15:25:08.611Z,17.60
2023-03-04T15:27:36.650Z,18.70
2023-03-04T15:30:09.615Z,19.30
2023-03-04T15:32:39.654Z,21.70
2023-03-04T15:35:09.389Z,22.00
2023-03-04T15:37:38.993Z,21.40
2023-03-04T15:40:16.716Z,17.40
2023-03-04T15:42:43.717Z,21.60
2023-03-04T15:45:24.048Z,22.80
2023-03-04T15:47:54.092Z,30.90
2023-03-04T15:50:22.540Z,21.60
2023-03-04T15:53:04.639Z,21.40
2023-03-04T15:55:31.960Z,24.30
2023-03-04T15:58:01.097Z,17.20
2023-03-04T16:00:28.332Z,19.50
2023-03-04T16:02:55.864Z,20.40
2023-03-04T16:05:25.884Z,23.70
2023-03-04T16:07:58.384Z,21.70
2023-03-04T16:10:31.686Z,23.40
2023-03-04T16:12:59.049Z,26.20
2023-03-04T16:15:29.387Z,23.90
2023-03-04T16:17:57.395Z,29.50
2023-03-04T16:20:28.158Z,24.90
2023-03-04T16:25:19.139Z,17.00
2023-03-04T16:27:51.112Z,16.20
2023-03-04T16:30:24.725Z,28.30
2023-03-04T16:33:07.313Z,23.80
2023-03-04T16:35:39.466Z,19.90
2023-03-04T16:38:33.418Z,20.30
2023-03-04T16:41:14.719Z,18.80
2023-03-04T16:43:44.658Z,22.80
2023-03-04T16:46:13.136Z,16.40
2023-03-04T16:48:42.021Z,37.60
2023-03-04T16:51:20.970Z,25.40
2023-03-04T16:53:55.112Z,22.40
2023-03-04T16:56:24.003Z,17.40
2023-03-04T16:58:54.319Z,21.90
2023-03-04T17:01:27.903Z,22.40
2023-03-04T17:03:56.808Z,17.00
2023-03-04T17:06:30.483Z,23.90
2023-03-04T17:09:24.406Z,24.30
2023-03-04T17:11:59.794Z,20.90
2023-03-04T17:14:29.512Z,25.00
2023-03-04T17:16:58.465Z,23.50
2023-03-04T17:19:27.752Z,19.90
2023-03-04T17:21:58.057Z,20.10
2023-03-04T17:24:26.631Z,19.50
2023-03-04T17:26:57.975Z,24.60
2023-03-04T17:29:29.144Z,23.40
2023-03-04T17:32:00.799Z,24.10
2023-03-04T17:34:32.217Z,20.20
2023-03-04T17:37:02.355Z,18.70
2023-03-04T17:39:32.467Z,22.70
2023-03-04T17:42:03.002Z,21.70
2023-03-04T17:44:38.053Z,23.00
2023-03-04T17:47:10.787Z,22.50
2023-03-04T17:49:43.625Z,25.10
2023-03-04T17:52:15.314Z,24.10
2023-03-04T17:54:48.364Z,25.10
2023-03-04T17:57:22.078Z,19.90
2023-03-04T17:59:56.581Z,19.80
2023-03-04T18:02:29.457Z,17.60
2023-03-04T18:05:08.890Z,19.70
2023-03-04T18:07:42.885Z,20.30
2023-03-04T18:10:25.725Z,19.50
2023-03-04T18:12:58.064Z,18.40
2023-03-04T18:15:33.191Z,20.80
2023-03-04T18:18:06.398Z,21.80
2023-03-04T18:20:43.883Z,21.00
2023-03-04T18:23:21.506Z,18.80
2023-03-04T18:25:51.345Z,20.50
2023-03-04T18:28:27.308Z,23.70
2023-03-04T18:31:00.562Z,21.20
2023-03-04T18:33:39.259Z,24.90
2023-03-04T18:36:09.850Z,33.10
2023-03-04T18:38:46.399Z,24.00
2023-03-04T18:41:20.129Z,27.50
2023-03-04T18:43:59.421Z,20.40
2023-03-04T18:46:38.909Z,23.00
2023-03-04T18:49:16.813Z,20.90
2023-03-04T18:51:53.946Z,22.40
2023-03-04T18:54:30.386Z,21.80
2023-03-04T18:57:05.797Z,26.70
2023-03-04T18:59:43.761Z,24.60
2023-03-04T19:02:47.129Z,28.20
2023-03-04T19:05:27.536Z,22.40
2023-03-04T19:08:02.280Z,24.80
2023-03-04T19:10:37.509Z,20.60
2023-03-04T19:13:17.904Z,18.00
2023-03-04T19:16:05.944Z,19.70
2023-03-04T19:18:38.849Z,21.50
2023-03-04T19:21:10.582Z,21.20
2023-03-04T19:23:50.446Z,22.50
2023-03-04T19:33:45.618Z,23.90
2023-03-04T19:36:28.533Z,24.20
2023-03-04T19:39:04.798Z,24.20
2023-03-04T19:41:38.367Z,25.60
2023-03-04T19:44:08.295Z,23.70
2023-03-04T19:46:40.776Z,32.90
2023-03-04T19:49:12.176Z,33.60
2023-03-04T19:51:45.205Z,23.30
2023-03-04T19:54:16.311Z,25.60
2023-03-04T19:56:48.526Z,26.30
2023-03-04T19:59:17.154Z,24.00
2023-03-04T20:01:55.763Z,21.30
2023-03-04T20:04:24.388Z,23.60
2023-03-04T20:06:56.305Z,25.30
2023-03-04T20:09:36.383Z,23.00
2023-03-04T20:12:05.380Z,22.40
2023-03-04T20:14:37.802Z,27.20
2023-03-04T20:17:08.205Z,24.40
2023-03-04T20:19:41.678Z,27.90
2023-03-04T20:22:13.986Z,28.10
2023-03-04T20:24:42.805Z,25.50
2023-03-04T20:27:19.178Z,22.50
2023-03-04T20:29:50.338Z,29.70
2023-03-04T20:32:18.701Z,26.40
2023-03-04T20:34:54.134Z,24.90
2023-03-04T20:37:26.312Z,26.60
2023-03-04T20:39:58.349Z,23.30
2023-03-04T20:42:27.584Z,23.70
2023-03-04T20:45:00.102Z,29.70
2023-03-04T20:47:29.626Z,30.40
2023-03-04T20:49:59.054Z,28.90
2023-03-04T20:52:27.597Z,30.40
2023-03-04T20:54:56.587Z,33.10
2023-03-04T20:57:24.755Z,29.10
2023-03-04T20:59:58.048Z,33.80
2023-03-04T21:02:31.162Z,24.90
2023-03-04T21:05:01.572Z,23.60
2023-03-04T21:07:30.966Z,28.90
2023-03-04T21:10:04.982Z,26.10
2023-03-04T21:12:33.736Z,31.00
2023-03-04T21:15:09.648Z,26.10
2023-03-04T21:17:40.471Z,30.40
2023-03-04T21:20:10.719Z,33.60
2023-03-04T21:22:40.997Z,27.50
2023-03-04T21:25:12.438Z,30.40
2023-03-04T21:27:43.367Z,45.90
2023-03-04T21:30:16.643Z,34.30
2023-03-04T21:32:50.484Z,29.40
2023-03-04T21:35:25.118Z,32.30
2023-03-04T21:38:22.031Z,35.70
2023-03-04T21:43:33.667Z,36.20
2023-03-04T21:46:01.980Z,35.60
2023-03-04T21:48:36.462Z,31.10
2023-03-04T21:51:08.295Z,36.30
2023-03-04T21:53:37.540Z,34.50
2023-03-04T21:56:05.788Z,33.00
2023-03-04T21:58:35.485Z,32.10
2023-03-04T22:01:17.176Z,31.40
2023-03-04T22:03:51.637Z,39.90
2023-03-04T22:06:24.537Z,34.00
2023-03-04T22:08:56.085Z,36.90
2023-03-04T22:11:24.853Z,33.20
2023-03-04T22:13:54.261Z,37.10
2023-03-04T22:16:22.753Z,38.80
2023-03-04T22:18:51.384Z,42.20
2023-03-04T22:21:20.202Z,37.00
2023-03-04T22:23:49.569Z,35.60
2023-03-04T22:26:30.193Z,35.40
2023-03-04T22:29:01.529Z,29.80
2023-03-04T22:31:32.034Z,30.80
2023-03-04T22:34:16.598Z,34.50
2023-03-04T22:36:46.776Z,32.50
2023-03-04T22:39:16.305Z,36.30
2023-03-04T22:41:46.018Z,37.10
2023-03-04T22:44:14.436Z,35.80
2023-03-04T22:46:43.783Z,33.00
2023-03-04T22:49:12.515Z,37.10
2023-03-04T22:51:42.023Z,37.90
2023-03-04T22:54:17.337Z,36.80
2023-03-04T22:56:45.963Z,33.60
2023-03-04T22:59:14.140Z,35.70
2023-03-04T23:01:42.918Z,37.20
2023-03-04T23:04:11.855Z,43.90
2023-03-04T23:06:40.494Z,37.00
2023-03-04T23:09:13.131Z,41.50
2023-03-04T23:11:42.579Z,40.80
2023-03-04T23:14:11.985Z,40.30
2023-03-04T23:16:44.631Z,39.50
2023-03-04T23:19:24.166Z,40.40
2023-03-04T23:21:57.380Z,36.50
2023-03-04T23:24:26.713Z,35.90
2023-03-04T23:26:54.899Z,36.50
2023-03-04T23:29:23.245Z,35.00
2023-03-04T23:31:51.839Z,38.20
2023-03-04T23:34:20.366Z,39.60
2023-03-04T23:36:49.115Z,38.30
2023-03-04T23:39:17.511Z,43.40
2023-03-04T23:43:23.069Z,36.80
2023-03-04T23:45:54.340Z,37.30
2023-03-04T23:48:22.591Z,34.90
2023-03-04T23:50:51.368Z,39.20
2023-03-04T23:53:20.496Z,40.60
2023-03-04T23:55:50.345Z,37.00
2023-03-04T23:58:17.840Z,34.10
